createdAt,value
2019-06-26T00:00:12.479Z,26.10
2019-06-26T00:02:41.870Z,26.10
2019-06-26T00:05:11.530Z,26.10
2019-06-26T00:07:40.861Z,26.10
2019-06-26T00:10:10.434Z,26.10
2019-06-26T00:12:39.812Z,26.10
2019-06-26T00:15:09.965Z,26.10
2019-06-26T00:17:39.284Z,26.10
2019-06-26T00:20:08.937Z,25.90
2019-06-26T00:22:38.260Z,25.90
2019-06-26T00:25:07.827Z,25.80
2019-06-26T00:27:37.138Z,25.80
2019-06-26T00:30:08.071Z,25.80
2019-06-26T00:32:37.376Z,25.70
2019-06-26T00:35:07.444Z,25.70
2019-06-26T00:37:36.897Z,25.60
2019-06-26T00:40:07.805Z,25.60
2019-06-26T00:42:37.138Z,25.60
2019-06-26T00:45:08.084Z,25.60
2019-06-26T00:47:37.400Z,25.60
2019-06-26T00:50:07.856Z,25.60
2019-06-26T00:52:37.202Z,25.50
2019-06-26T00:55:06.748Z,25.50
2019-06-26T00:57:36.341Z,25.50
2019-06-26T01:00:10.587Z,25.50
2019-06-26T01:02:39.983Z,25.40
2019-06-26T01:05:13.001Z,25.40
2019-06-26T01:07:42.346Z,25.40
2019-06-26T01:10:13.104Z,25.40
2019-06-26T01:12:42.437Z,25.40
2019-06-26T01:15:11.948Z,25.40
2019-06-26T01:17:41.293Z,25.40
2019-06-26T01:20:10.847Z,25.40
2019-06-26T01:22:40.159Z,25.40
2019-06-26T01:25:09.649Z,25.40
2019-06-26T01:27:38.974Z,25.40
2019-06-26T01:30:08.460Z,25.40
2019-06-26T01:32:37.785Z,25.40
2019-06-26T01:35:07.700Z,25.40
2019-06-26T01:37:38.041Z,25.40
2019-06-26T01:40:07.431Z,25.40
2019-06-26T01:42:36.756Z,25.40
2019-06-26T01:45:07.418Z,25.50
2019-06-26T01:47:36.817Z,25.50
2019-06-26T01:50:09.530Z,25.40
2019-06-26T01:52:38.866Z,25.50
2019-06-26T01:55:08.615Z,25.40
2019-06-26T01:57:38.914Z,25.40
2019-06-26T02:00:10.178Z,25.50
2019-06-26T02:02:39.521Z,25.50
2019-06-26T02:05:10.034Z,25.50
2019-06-26T02:07:53.994Z,25.50
2019-06-26T02:10:23.388Z,25.50
2019-06-26T02:12:52.702Z,25.40
2019-06-26T02:15:22.009Z,25.40
2019-06-26T02:17:51.349Z,25.50
2019-06-26T02:20:20.664Z,25.40
2019-06-26T02:22:50.005Z,25.40
2019-06-26T02:25:19.317Z,25.40
2019-06-26T02:27:49.600Z,25.40
2019-06-26T02:30:18.926Z,25.40
2019-06-26T02:32:48.239Z,25.40
2019-06-26T02:35:18.038Z,25.40
2019-06-26T02:37:47.343Z,25.40
2019-06-26T02:40:17.221Z,25.40
2019-06-26T02:42:46.546Z,25.40
2019-06-26T02:45:16.111Z,25.40
2019-06-26T02:47:45.430Z,25.40
2019-06-26T02:50:14.750Z,25.40
2019-06-26T02:52:44.056Z,25.30
2019-06-26T02:55:13.708Z,25.30
2019-06-26T02:57:43.022Z,25.30
2019-06-26T03:00:12.476Z,25.30
2019-06-26T03:02:41.787Z,25.30
2019-06-26T03:05:11.099Z,25.30
2019-06-26T03:07:40.413Z,25.30
2019-06-26T03:10:09.866Z,25.30
2019-06-26T03:12:39.172Z,25.30
2019-06-26T03:15:09.856Z,25.30
2019-06-26T03:17:54.331Z,25.30
2019-06-26T03:20:13.739Z,25.30
2019-06-26T03:22:43.049Z,25.30
2019-06-26T03:25:12.374Z,25.30
2019-06-26T03:27:41.663Z,25.30
2019-06-26T03:30:11.039Z,25.30
2019-06-26T03:32:40.375Z,25.30
2019-06-26T03:35:09.829Z,25.30
2019-06-26T03:37:39.168Z,25.30
2019-06-26T03:40:08.737Z,25.30
2019-06-26T03:42:38.052Z,25.30
2019-06-26T03:45:24.159Z,25.40
2019-06-26T03:47:38.965Z,25.40
2019-06-26T03:50:08.525Z,25.30
2019-06-26T03:52:37.902Z,25.00
2019-06-26T03:55:07.451Z,24.90
2019-06-26T03:57:37.733Z,24.70
2019-06-26T04:00:09.188Z,24.60
2019-06-26T04:02:38.515Z,24.40
2019-06-26T04:05:08.320Z,24.50
2019-06-26T04:07:38.749Z,24.50
2019-06-26T04:10:08.408Z,24.60
2019-06-26T04:12:37.716Z,24.60
2019-06-26T04:15:07.567Z,24.60
2019-06-26T04:17:36.882Z,24.70
2019-06-26T04:20:07.043Z,24.50
2019-06-26T04:22:36.352Z,24.00
2019-06-26T04:25:07.180Z,23.80
2019-06-26T04:27:36.509Z,23.80
2019-06-26T04:30:10.422Z,23.80
2019-06-26T04:32:39.745Z,23.80
2019-06-26T04:35:09.253Z,23.80
2019-06-26T04:37:38.636Z,23.90
2019-06-26T04:40:08.396Z,24.10
2019-06-26T04:42:37.721Z,24.10
2019-06-26T04:45:07.964Z,24.30
2019-06-26T04:47:37.357Z,24.60
2019-06-26T04:50:08.717Z,24.60
2019-06-26T04:52:38.058Z,24.70
2019-06-26T04:55:08.120Z,24.90
2019-06-26T04:57:37.462Z,24.90
2019-06-26T05:00:07.931Z,24.80
2019-06-26T05:02:37.332Z,24.90
2019-06-26T05:05:08.466Z,24.90
2019-06-26T05:07:37.787Z,24.90
2019-06-26T05:10:10.348Z,25.00
2019-06-26T05:12:39.680Z,25.00
2019-06-26T05:15:09.655Z,25.00
2019-06-26T05:17:39.032Z,25.00
2019-06-26T05:20:09.100Z,25.10
2019-06-26T05:22:38.454Z,25.10
2019-06-26T05:25:09.073Z,25.10
2019-06-26T05:27:38.388Z,25.20
2019-06-26T05:30:08.451Z,25.20
2019-06-26T05:32:37.768Z,25.30
2019-06-26T05:35:09.803Z,25.30
2019-06-26T05:37:58.528Z,25.30
2019-06-26T05:40:27.880Z,25.30
2019-06-26T05:42:57.217Z,25.40
2019-06-26T05:45:27.711Z,25.40
2019-06-26T05:47:57.035Z,25.40
2019-06-26T05:50:26.500Z,25.50
2019-06-26T05:52:55.824Z,25.50
2019-06-26T05:55:26.123Z,25.60
2019-06-26T05:57:55.456Z,25.60
2019-06-26T06:00:24.917Z,25.60
2019-06-26T06:02:54.345Z,25.60
2019-06-26T06:05:23.716Z,25.70
2019-06-26T06:07:53.036Z,25.70
2019-06-26T06:10:22.436Z,25.70
2019-06-26T06:12:51.756Z,25.70
2019-06-26T06:15:21.164Z,25.80
2019-06-26T06:17:50.495Z,25.80
2019-06-26T06:20:25.418Z,25.90
2019-06-26T06:22:54.817Z,25.90
2019-06-26T06:25:24.165Z,25.90
2019-06-26T06:27:53.488Z,25.90
2019-06-26T06:30:23.061Z,25.90
2019-06-26T06:32:52.392Z,25.80
2019-06-26T06:35:21.724Z,25.80
2019-06-26T06:37:51.064Z,25.80
2019-06-26T06:40:20.467Z,25.80
2019-06-26T06:42:50.154Z,25.80
2019-06-26T06:45:20.140Z,25.80
2019-06-26T06:47:49.513Z,25.80
2019-06-26T06:50:18.839Z,25.80
2019-06-26T06:52:48.191Z,25.80
2019-06-26T06:55:18.585Z,25.80
2019-06-26T06:57:47.903Z,25.90
2019-06-26T07:00:17.671Z,25.90
2019-06-26T07:02:46.997Z,25.90
2019-06-26T07:05:16.430Z,25.90
2019-06-26T07:07:45.741Z,25.90
2019-06-26T07:10:15.138Z,25.90
2019-06-26T07:12:44.472Z,25.90
2019-06-26T07:15:13.929Z,25.90
2019-06-26T07:17:43.261Z,25.90
2019-06-26T07:20:12.857Z,25.90
2019-06-26T07:22:42.192Z,25.90
2019-06-26T07:25:12.564Z,25.90
2019-06-26T07:27:42.007Z,25.90
2019-06-26T07:30:11.878Z,25.90
2019-06-26T07:32:41.204Z,25.90
2019-06-26T07:35:10.618Z,25.90
2019-06-26T07:37:39.971Z,25.90
2019-06-26T07:40:09.528Z,25.90
2019-06-26T07:42:38.850Z,25.90
2019-06-26T07:45:09.011Z,25.90
2019-06-26T07:47:43.599Z,25.90
2019-06-26T07:50:09.527Z,25.90
2019-06-26T07:52:38.847Z,25.90
2019-06-26T07:55:11.794Z,25.90
2019-06-26T07:57:39.453Z,25.90
2019-06-26T08:00:09.225Z,26.00
2019-06-26T08:02:38.572Z,26.00
2019-06-26T08:05:09.001Z,26.00
2019-06-26T08:07:38.375Z,26.00
2019-06-26T08:10:09.101Z,26.00
2019-06-26T08:12:38.449Z,26.00
2019-06-26T08:15:08.216Z,26.00
2019-06-26T08:17:37.560Z,26.00
2019-06-26T08:20:07.112Z,26.00
2019-06-26T08:22:37.400Z,26.00
2019-06-26T08:25:08.466Z,26.00
2019-06-26T08:27:37.867Z,26.00
2019-06-26T08:30:09.317Z,26.00
2019-06-26T08:32:39.621Z,26.00
2019-06-26T08:35:09.088Z,26.00
2019-06-26T08:37:38.421Z,26.00
2019-06-26T08:40:08.399Z,26.10
2019-06-26T08:42:37.777Z,26.10
2019-06-26T08:45:08.173Z,26.10
2019-06-26T08:47:37.503Z,26.10
2019-06-26T08:50:08.750Z,26.10
2019-06-26T08:52:38.071Z,26.10
2019-06-26T08:55:08.129Z,26.10
2019-06-26T08:57:37.553Z,26.10
2019-06-26T09:00:09.895Z,26.10
2019-06-26T09:02:39.224Z,26.20
2019-06-26T09:05:09.483Z,26.20
2019-06-26T09:07:38.867Z,26.20
2019-06-26T09:10:08.803Z,26.20
2019-06-26T09:12:38.164Z,26.20
2019-06-26T09:15:07.929Z,26.10
2019-06-26T09:17:37.252Z,26.20
2019-06-26T09:20:06.865Z,26.20
2019-06-26T09:22:36.274Z,26.20
2019-06-26T09:25:20.805Z,26.20
2019-06-26T09:27:39.801Z,26.20
2019-06-26T09:30:09.666Z,26.20
2019-06-26T09:32:38.976Z,26.20
2019-06-26T09:35:08.844Z,26.30
2019-06-26T09:37:38.186Z,26.30
2019-06-26T09:40:07.793Z,26.30
2019-06-26T09:42:37.096Z,26.30
2019-06-26T09:45:07.307Z,26.30
2019-06-26T09:47:36.625Z,26.30
2019-06-26T09:50:06.612Z,26.30
2019-06-26T09:52:35.986Z,26.30
2019-06-26T09:55:06.796Z,26.30
2019-06-26T09:57:36.164Z,26.40
2019-06-26T10:00:10.618Z,26.30
2019-06-26T10:02:40.049Z,26.40
2019-06-26T10:05:09.673Z,26.40
2019-06-26T10:07:39.016Z,26.40
2019-06-26T10:10:09.680Z,26.30
2019-06-26T10:12:39.008Z,26.30
2019-06-26T10:15:08.565Z,26.40
2019-06-26T10:17:37.903Z,26.40
2019-06-26T10:20:08.137Z,26.40
2019-06-26T10:22:37.447Z,26.40
2019-06-26T10:25:11.116Z,26.40
2019-06-26T10:27:38.607Z,26.40
2019-06-26T10:30:09.369Z,26.40
2019-06-26T10:32:38.698Z,26.40
2019-06-26T10:35:08.379Z,26.40
2019-06-26T10:37:37.707Z,26.40
2019-06-26T10:40:07.400Z,26.40
2019-06-26T10:42:36.716Z,26.40
2019-06-26T10:45:07.651Z,26.40
2019-06-26T10:47:39.621Z,26.40
2019-06-26T10:50:08.368Z,26.40
2019-06-26T10:52:37.685Z,26.40
2019-06-26T10:55:08.334Z,26.50
2019-06-26T10:57:37.652Z,26.50
2019-06-26T11:00:08.022Z,26.50
2019-06-26T11:02:37.341Z,26.50
2019-06-26T11:05:07.709Z,26.50
2019-06-26T11:07:37.040Z,26.50
2019-06-26T11:10:08.090Z,26.50
2019-06-26T11:12:38.491Z,26.50
2019-06-26T11:15:08.189Z,26.50
2019-06-26T11:17:37.504Z,26.50
2019-06-26T11:20:10.415Z,26.50
2019-06-26T11:22:39.852Z,26.50
2019-06-26T11:25:09.716Z,26.50
2019-06-26T11:27:39.044Z,26.60
2019-06-26T11:30:10.031Z,26.60
2019-06-26T11:32:39.420Z,26.50
2019-06-26T11:35:09.396Z,26.50
2019-06-26T11:37:38.721Z,26.50
2019-06-26T11:40:08.994Z,26.60
2019-06-26T11:42:38.317Z,26.50
2019-06-26T11:45:08.289Z,26.60
2019-06-26T11:47:37.883Z,26.60
2019-06-26T11:50:12.083Z,26.60
2019-06-26T11:52:41.401Z,26.60
2019-06-26T11:55:12.358Z,26.60
2019-06-26T11:57:41.783Z,26.60
2019-06-26T12:00:14.277Z,26.60
2019-06-26T12:02:43.680Z,26.60
2019-06-26T12:05:14.746Z,26.60
2019-06-26T12:07:44.086Z,26.60
2019-06-26T12:10:13.918Z,26.60
2019-06-26T12:12:43.345Z,26.70
2019-06-26T12:15:13.316Z,26.60
2019-06-26T12:17:42.633Z,26.70
2019-06-26T12:20:18.759Z,26.60
2019-06-26T12:22:43.313Z,26.70
2019-06-26T12:25:12.705Z,26.70
2019-06-26T12:27:42.042Z,26.70
2019-06-26T12:30:11.798Z,26.70
2019-06-26T12:32:47.406Z,26.70
2019-06-26T12:35:12.893Z,26.70
2019-06-26T12:37:42.222Z,26.70
2019-06-26T12:40:11.986Z,26.70
2019-06-26T12:42:41.385Z,26.80
2019-06-26T12:45:11.083Z,26.80
2019-06-26T12:47:40.396Z,26.70
2019-06-26T12:50:12.013Z,26.80
2019-06-26T12:52:41.341Z,26.70
2019-06-26T12:55:11.097Z,26.80
2019-06-26T12:57:40.425Z,26.80
2019-06-26T13:00:11.085Z,26.70
2019-06-26T13:02:40.469Z,26.70
2019-06-26T13:05:10.130Z,26.70
2019-06-26T13:07:39.490Z,26.70
2019-06-26T13:10:09.608Z,26.70
2019-06-26T13:12:38.941Z,26.70
2019-06-26T13:15:09.101Z,26.70
2019-06-26T13:17:38.422Z,26.70
2019-06-26T13:20:10.515Z,26.70
2019-06-26T13:22:40.068Z,26.70
2019-06-26T13:25:10.377Z,26.70
2019-06-26T13:27:39.701Z,26.70
2019-06-26T13:30:09.362Z,26.70
2019-06-26T13:32:38.686Z,26.80
2019-06-26T13:35:08.445Z,26.80
2019-06-26T13:37:37.768Z,26.80
2019-06-26T13:40:07.217Z,26.80
2019-06-26T13:42:36.545Z,26.80
2019-06-26T13:45:07.498Z,26.80
2019-06-26T13:47:36.880Z,26.80
2019-06-26T13:50:08.205Z,26.80
2019-06-26T13:52:37.533Z,26.80
2019-06-26T13:55:06.994Z,26.80
2019-06-26T13:57:36.364Z,26.80
2019-06-26T14:00:07.243Z,26.90
2019-06-26T14:02:36.601Z,26.80
2019-06-26T14:05:09.838Z,26.80
2019-06-26T14:07:38.375Z,26.90
2019-06-26T14:10:08.807Z,26.90
2019-06-26T14:12:38.184Z,26.90
2019-06-26T14:15:08.532Z,26.90
2019-06-26T14:17:37.852Z,26.90
2019-06-26T14:20:08.299Z,26.80
2019-06-26T14:22:37.634Z,26.90
2019-06-26T14:25:07.479Z,26.90
2019-06-26T14:27:36.804Z,26.90
2019-06-26T14:30:07.243Z,26.90
2019-06-26T14:32:36.557Z,26.90
2019-06-26T14:35:06.412Z,26.90
2019-06-26T14:37:35.731Z,26.90
2019-06-26T14:40:08.051Z,26.90
2019-06-26T14:42:37.689Z,26.90
2019-06-26T14:45:08.341Z,26.90
2019-06-26T14:47:37.666Z,26.90
2019-06-26T14:50:08.114Z,27.00
2019-06-26T14:52:37.441Z,26.90
2019-06-26T14:55:07.021Z,27.00
2019-06-26T14:57:36.420Z,26.90
2019-06-26T15:00:07.245Z,27.00
2019-06-26T15:02:36.566Z,26.90
2019-06-26T15:05:07.225Z,27.00
2019-06-26T15:07:36.564Z,27.00
2019-06-26T15:10:08.117Z,27.00
2019-06-26T15:12:37.446Z,27.00
2019-06-26T15:15:08.802Z,27.00
2019-06-26T15:17:38.120Z,27.00
2019-06-26T15:20:08.467Z,27.00
2019-06-26T15:22:37.815Z,27.00
2019-06-26T15:25:08.286Z,27.00
2019-06-26T15:27:37.633Z,27.00
2019-06-26T15:30:08.113Z,27.10
2019-06-26T15:32:38.044Z,27.00
2019-06-26T15:35:08.783Z,27.10
2019-06-26T15:37:38.111Z,27.10
2019-06-26T15:40:07.858Z,27.00
2019-06-26T15:42:37.447Z,27.00
2019-06-26T15:45:07.317Z,27.10
2019-06-26T15:47:36.635Z,27.10
2019-06-26T15:50:10.621Z,27.10
2019-06-26T15:52:38.656Z,27.10
2019-06-26T15:55:08.423Z,27.10
2019-06-26T15:57:37.758Z,27.10
2019-06-26T16:00:07.864Z,27.20
2019-06-26T16:02:37.261Z,27.20
2019-06-26T16:05:08.284Z,27.20
2019-06-26T16:07:38.565Z,27.20
2019-06-26T16:10:08.430Z,27.20
2019-06-26T16:12:37.741Z,27.30
2019-06-26T16:15:07.598Z,27.30
2019-06-26T16:17:44.262Z,27.30
2019-06-26T16:20:13.747Z,27.30
2019-06-26T16:22:43.066Z,27.40
2019-06-26T16:25:13.925Z,27.40
2019-06-26T16:27:43.255Z,27.40
2019-06-26T16:30:13.085Z,27.40
2019-06-26T16:32:42.400Z,27.40
2019-06-26T16:35:12.483Z,27.40
2019-06-26T16:37:41.896Z,27.50
2019-06-26T16:40:11.300Z,27.50
2019-06-26T16:42:40.997Z,27.40
2019-06-26T16:45:10.707Z,27.40
2019-06-26T16:47:40.022Z,27.40
2019-06-26T16:50:09.603Z,27.30
2019-06-26T16:52:49.230Z,27.30
2019-06-26T16:55:10.185Z,27.30
2019-06-26T16:57:39.513Z,27.30
2019-06-26T17:00:10.371Z,27.30
2019-06-26T17:02:40.231Z,27.30
2019-06-26T17:05:10.602Z,27.30
2019-06-26T17:07:40.012Z,27.30
2019-06-26T17:10:09.590Z,27.30
2019-06-26T17:12:38.900Z,27.20
2019-06-26T17:15:08.976Z,27.30
2019-06-26T17:17:38.293Z,27.20
2019-06-26T17:20:07.968Z,27.20
2019-06-26T17:22:37.285Z,27.30
2019-06-26T17:25:07.503Z,27.30
2019-06-26T17:27:36.849Z,27.30
2019-06-26T17:30:09.522Z,27.30
2019-06-26T17:32:38.840Z,27.30
2019-06-26T17:35:08.754Z,27.30
2019-06-26T17:37:38.072Z,27.30
2019-06-26T17:40:08.610Z,27.30
2019-06-26T17:42:37.933Z,27.30
2019-06-26T17:45:07.911Z,27.30
2019-06-26T17:47:37.245Z,27.30
2019-06-26T17:50:07.903Z,27.30
2019-06-26T17:52:38.593Z,27.30
2019-06-26T17:55:09.880Z,27.30
2019-06-26T17:57:39.229Z,27.30
2019-06-26T18:00:11.529Z,27.30
2019-06-26T18:02:41.232Z,27.30
2019-06-26T18:05:10.729Z,27.30
2019-06-26T18:07:40.065Z,27.30
2019-06-26T18:10:09.553Z,27.30
2019-06-26T18:12:38.900Z,27.30
2019-06-26T18:15:08.535Z,27.30
2019-06-26T18:17:37.860Z,27.30
2019-06-26T18:20:07.917Z,27.30
2019-06-26T18:22:38.204Z,27.30
2019-06-26T18:25:07.868Z,27.30
2019-06-26T18:27:37.192Z,27.30
2019-06-26T18:30:07.958Z,27.30
2019-06-26T18:32:37.292Z,27.30
2019-06-26T18:35:07.917Z,27.30
2019-06-26T18:37:37.233Z,27.30
2019-06-26T18:40:08.294Z,27.30
2019-06-26T18:42:37.609Z,27.30
2019-06-26T18:45:08.333Z,27.30
2019-06-26T18:47:37.663Z,27.30
2019-06-26T18:50:07.931Z,27.30
2019-06-26T18:52:37.292Z,27.30
2019-06-26T18:55:07.091Z,27.30
2019-06-26T18:57:36.409Z,27.30
2019-06-26T19:00:08.137Z,27.30
2019-06-26T19:02:37.535Z,27.30
2019-06-26T19:05:08.601Z,27.30
2019-06-26T19:07:37.926Z,27.30
2019-06-26T19:10:10.584Z,27.30
2019-06-26T19:12:39.904Z,27.30
2019-06-26T19:15:09.767Z,27.30
2019-06-26T19:17:42.397Z,27.30
2019-06-26T19:20:12.616Z,27.30
2019-06-26T19:22:41.952Z,27.30
2019-06-26T19:25:11.460Z,27.30
2019-06-26T19:27:40.783Z,27.30
2019-06-26T19:30:10.733Z,27.30
2019-06-26T19:32:40.100Z,27.30
2019-06-26T19:35:18.594Z,27.30
2019-06-26T19:37:40.566Z,27.30
2019-06-26T19:40:10.455Z,27.30
2019-06-26T19:42:39.785Z,27.30
2019-06-26T19:45:10.349Z,27.30
2019-06-26T19:47:40.726Z,27.40
2019-06-26T19:50:10.952Z,27.40
2019-06-26T19:52:40.303Z,27.40
2019-06-26T19:55:09.928Z,27.40
2019-06-26T19:57:39.280Z,27.40
2019-06-26T20:00:10.662Z,27.40
2019-06-26T20:02:40.204Z,27.40
2019-06-26T20:05:09.986Z,27.30
2019-06-26T20:07:39.532Z,27.30
2019-06-26T20:10:09.298Z,27.30
2019-06-26T20:12:38.700Z,27.30
2019-06-26T20:15:08.219Z,27.30
2019-06-26T20:17:37.573Z,27.30
2019-06-26T20:20:07.524Z,27.30
2019-06-26T20:22:36.913Z,27.30
2019-06-26T20:25:08.283Z,27.30
2019-06-26T20:27:37.689Z,27.30
2019-06-26T20:30:09.894Z,27.30
2019-06-26T20:32:39.643Z,27.30
2019-06-26T20:35:08.957Z,27.30
2019-06-26T20:37:38.277Z,27.30
2019-06-26T20:40:08.337Z,27.30
2019-06-26T20:42:37.654Z,27.30
2019-06-26T20:45:08.820Z,27.20
2019-06-26T20:47:38.129Z,27.20
2019-06-26T20:50:07.623Z,27.20
2019-06-26T20:52:36.934Z,27.20
2019-06-26T20:55:06.693Z,27.20
2019-06-26T20:57:36.964Z,27.20
2019-06-26T21:00:08.532Z,27.10
2019-06-26T21:02:38.324Z,27.10
2019-06-26T21:05:07.883Z,27.10
2019-06-26T21:07:37.282Z,27.20
2019-06-26T21:10:06.894Z,27.10
2019-06-26T21:12:36.277Z,27.10
2019-06-26T21:15:08.146Z,27.10
2019-06-26T21:17:37.519Z,27.10
2019-06-26T21:20:07.677Z,27.10
2019-06-26T21:22:37.002Z,27.00
2019-06-26T21:25:17.793Z,27.00
2019-06-26T21:27:38.285Z,26.90
2019-06-26T21:30:08.067Z,26.90
2019-06-26T21:32:37.376Z,26.90
2019-06-26T21:35:06.799Z,26.90
2019-06-26T21:37:36.204Z,26.80
2019-06-26T21:40:06.076Z,26.80
2019-06-26T21:42:35.400Z,26.80
2019-06-26T21:45:05.405Z,26.70
2019-06-26T21:47:34.733Z,26.70
2019-06-26T21:50:05.829Z,26.70
2019-06-26T21:52:36.348Z,26.70
2019-06-26T21:55:06.512Z,26.70
2019-06-26T21:57:53.810Z,26.70
2019-06-26T22:00:41.417Z,26.70
2019-06-26T22:03:29.252Z,26.70
2019-06-26T22:06:12.794Z,26.70
2019-06-26T22:09:02.040Z,26.60
2019-06-26T22:11:32.965Z,26.60
2019-06-26T22:14:02.366Z,26.70
2019-06-26T22:16:31.700Z,26.70
2019-06-26T22:19:01.017Z,26.60
2019-06-26T22:21:30.388Z,26.50
2019-06-26T22:23:59.715Z,26.50
2019-06-26T22:26:29.108Z,26.40
2019-06-26T22:28:58.425Z,26.50
2019-06-26T22:31:27.755Z,26.60
2019-06-26T22:33:58.165Z,26.50
2019-06-26T22:36:27.480Z,26.40
2019-06-26T22:38:56.801Z,26.40
2019-06-26T22:41:26.117Z,26.40
2019-06-26T22:43:55.434Z,26.30
2019-06-26T22:46:24.750Z,26.20
2019-06-26T22:48:54.047Z,26.30
2019-06-26T22:51:23.429Z,26.30
2019-06-26T22:53:52.736Z,26.20
2019-06-26T22:56:22.056Z,26.20
2019-06-26T22:58:51.364Z,26.10
2019-06-26T23:01:20.704Z,26.10
2019-06-26T23:03:50.020Z,26.10
2019-06-26T23:06:19.347Z,25.90
2019-06-26T23:08:48.662Z,25.90
2019-06-26T23:11:17.988Z,25.90
2019-06-26T23:13:47.315Z,25.80
2019-06-26T23:16:16.628Z,25.90
2019-06-26T23:18:45.957Z,25.90
2019-06-26T23:21:15.361Z,25.80
2019-06-26T23:23:44.685Z,25.80
2019-06-26T23:26:23.565Z,25.90
2019-06-26T23:28:45.018Z,25.90
2019-06-26T23:31:14.340Z,25.70
2019-06-26T23:33:43.667Z,25.60
2019-06-26T23:36:12.992Z,25.40
2019-06-26T23:38:42.317Z,25.50
2019-06-26T23:41:11.648Z,25.60
2019-06-26T23:43:40.970Z,25.60
2019-06-26T23:46:10.287Z,25.60
2019-06-26T23:48:39.611Z,25.50
2019-06-26T23:51:08.940Z,25.50
2019-06-26T23:53:38.249Z,25.30
2019-06-26T23:56:07.572Z,25.30
2019-06-26T23:58:37.976Z,25.40
